createdAt,value
2024-02-01T00:01:47.816Z,157.54362416107384
2024-02-01T00:06:24.371Z,153.7986577181208
2024-02-01T00:09:45.215Z,150.35570469798657
2024-02-01T00:13:05.697Z,152.3288590604027
2024-02-01T00:16:26.374Z,157.3489932885906
2024-02-01T00:19:46.390Z,146.26174496644296
2024-02-01T00:23:06.284Z,160.4765100671141
2024-02-01T00:26:26.769Z,153.69127516778522
2024-02-01T00:29:46.798Z,144.7718120805369
2024-02-01T00:34:32.462Z,150.0201342281879
2024-02-01T00:37:52.600Z,149.10738255033556
2024-02-01T00:41:12.974Z,151.6510067114094
2024-02-01T00:44:34.329Z,143.40268456375838
2024-02-01T00:54:29.126Z,144.7986577181208
2024-02-01T00:57:49.392Z,139.36241610738256
2024-02-01T01:02:07.549Z,145.48993288590603
2024-02-01T01:05:28.053Z,145.25503355704697
2024-02-01T01:08:48.283Z,141.5503355704698
2024-02-01T01:12:10.167Z,149.51006711409397
2024-02-01T01:15:30.918Z,145.0201342281879
2024-02-01T01:18:51.003Z,131.7986577181208
2024-02-01T01:22:11.242Z,132.81208053691276
2024-02-01T01:25:31.913Z,155.53691275167785
2024-02-01T01:28:52.200Z,130.89261744966444
2024-02-01T01:32:13.884Z,149.61073825503357
2024-02-01T01:41:02.525Z,145.70469798657717
2024-02-01T01:44:23.126Z,138.6778523489933
2024-02-01T01:49:06.044Z,138.58389261744966
2024-02-01T01:52:27.316Z,130.19463087248323
2024-02-01T01:55:47.108Z,127.28859060402685
2024-02-01T01:59:07.190Z,118.58389261744966
2024-02-01T02:02:27.853Z,116.63758389261746
2024-02-01T02:05:47.853Z,112.69127516778524
2024-02-01T02:09:07.907Z,101.61073825503355
2024-02-01T02:12:28.437Z,114.71812080536913
2024-02-01T02:15:48.594Z,114.96644295302013
2024-02-01T02:19:55.867Z,121.53020134228188
2024-02-01T02:23:18.170Z,119.38926174496645
2024-02-01T02:26:39.158Z,121.8993288590604
2024-02-01T02:29:59.189Z,104.09395973154362
2024-02-01T02:33:20.020Z,108.73825503355705
2024-02-01T02:40:24.471Z,107.9261744966443
2024-02-01T02:43:44.840Z,101.85234899328859
2024-02-01T02:47:05.430Z,106.19463087248322
2024-02-01T02:50:26.502Z,96.67114093959732
2024-02-01T02:54:00.455Z,81.63087248322148
2024-02-01T02:57:20.618Z,99.53020134228188
2024-02-01T03:00:41.061Z,82.29530201342281
2024-02-01T03:04:01.803Z,74.13422818791946
2024-02-01T03:07:22.755Z,77.42953020134229
2024-02-01T03:10:42.794Z,78.30201342281879
2024-02-01T03:14:03.095Z,72.22147651006712
2024-02-01T03:17:24.161Z,81.78523489932886
2024-02-01T03:25:31.051Z,67.08053691275168
2024-02-01T03:30:04.117Z,74.14765100671141
2024-02-01T03:33:25.054Z,71.04697986577182
2024-02-01T03:36:44.322Z,64.85234899328859
2024-02-01T03:40:04.476Z,59.32214765100671
2024-02-01T03:43:25.061Z,57.91275167785235
2024-02-01T03:46:45.441Z,64.08053691275168
2024-02-01T03:50:06.076Z,57.97315436241611
2024-02-01T03:54:48.071Z,55.40268456375839
2024-02-01T03:58:08.340Z,52.986577181208055
2024-02-01T04:01:29.334Z,46.80536912751678
2024-02-01T04:04:49.675Z,39.348993288590606
2024-02-01T04:08:10.400Z,38.90604026845637
2024-02-01T04:11:31.200Z,41.671140939597315
2024-02-01T04:18:01.831Z,32.919463087248324
2024-02-01T04:21:22.957Z,34.65771812080537
2024-02-01T04:24:44.037Z,30.261744966442954
2024-02-01T04:28:03.913Z,27.966442953020135
2024-02-01T04:33:41.470Z,37.25503355704698
2024-02-01T04:37:01.600Z,33.57046979865772
2024-02-01T04:40:22.449Z,30.563758389261746
2024-02-01T04:43:42.928Z,29.187919463087248
2024-02-01T04:47:03.202Z,37.993288590604024
2024-02-01T04:50:24.287Z,36.04026845637584
2024-02-01T04:53:44.583Z,29.78523489932886
2024-02-01T04:57:04.398Z,35.46979865771812
2024-02-01T05:00:24.659Z,33.557046979865774
2024-02-01T05:03:44.964Z,30.899328859060404
2024-02-01T05:07:05.368Z,30.758389261744966
2024-02-01T05:10:25.935Z,27.221476510067113
2024-02-01T05:13:46.512Z,35.61744966442953
2024-02-01T05:17:06.777Z,30.993288590604028
2024-02-01T05:20:27.973Z,36.080536912751676
2024-02-01T05:23:48.513Z,30.42281879194631
2024-02-01T05:27:08.152Z,25.946308724832214
2024-02-01T05:30:28.803Z,36.81208053691275
2024-02-01T05:33:49.269Z,38.2751677852349
2024-02-01T05:37:09.237Z,37.369127516778526
2024-02-01T05:40:29.700Z,27.161073825503355
2024-02-01T05:43:50.776Z,39.34228187919463
2024-02-01T05:47:11.563Z,34.87919463087248
2024-02-01T05:50:32.215Z,30.74496644295302
2024-02-01T05:53:52.449Z,38.18120805369127
2024-02-01T05:59:40.478Z,34.986577181208055
2024-02-01T06:03:00.818Z,27.966442953020135
2024-02-01T06:08:59.322Z,36.24832214765101
2024-02-01T06:12:20.784Z,43.97986577181208
2024-02-01T06:15:40.677Z,32.18120805369127
2024-02-01T06:21:40.410Z,39.33557046979866
2024-02-01T06:25:01.062Z,46.67785234899329
2024-02-01T06:28:21.542Z,30.711409395973153
2024-02-01T06:31:41.689Z,30.993288590604028
2024-02-01T06:35:01.850Z,44.34228187919463
2024-02-01T06:38:23.581Z,33.06711409395973
2024-02-01T06:41:43.271Z,36.2751677852349
2024-02-01T06:45:04.121Z,72.06711409395973
2024-02-01T06:48:24.867Z,52.31543624161074
2024-02-01T06:51:45.397Z,34.946308724832214
2024-02-01T06:57:09.329Z,47.671140939597315
2024-02-01T07:00:30.069Z,64.30872483221476
2024-02-01T07:03:50.490Z,123.04697986577182
2024-02-01T07:07:11.456Z,108.95973154362416
2024-02-01T07:12:23.034Z,42.604026845637584
2024-02-01T07:16:04.086Z,36.19463087248322
2024-02-01T07:19:24.613Z,34.328859060402685
2024-02-01T07:25:24.465Z,37.08724832214765
2024-02-01T07:28:44.427Z,39.442953020134226
2024-02-01T07:35:04.107Z,42.22147651006711
2024-02-01T07:39:39.035Z,45.15436241610738
2024-02-01T07:42:59.293Z,32.59731543624161
2024-02-01T07:47:55.955Z,40.241610738255034
2024-02-01T07:51:22.235Z,60.22147651006711
2024-02-01T07:54:42.750Z,55.080536912751676
2024-02-01T07:58:03.102Z,39.15436241610738
2024-02-01T08:01:44.245Z,46.85906040268456
2024-02-01T08:05:06.471Z,41.51006711409396
2024-02-01T08:08:34.976Z,98.67114093959732
2024-02-01T08:14:16.255Z,57.76510067114094
2024-02-01T08:17:38.303Z,42.87248322147651
2024-02-01T08:21:34.290Z,57.93288590604027
2024-02-01T08:24:54.459Z,59.51677852348993
2024-02-01T08:31:28.443Z,46.47651006711409
2024-02-01T08:34:49.754Z,53.604026845637584
2024-02-01T08:38:10.799Z,65.97986577181209
2024-02-01T08:41:32.436Z,51.738255033557046
2024-02-01T08:44:52.606Z,45.375838926174495
2024-02-01T08:48:13.317Z,39.12080536912752
2024-02-01T08:51:33.845Z,50.22818791946309
2024-02-01T08:54:54.128Z,46.81208053691275
2024-02-01T08:58:15.785Z,49.919463087248324
2024-02-01T09:01:36.760Z,55.50335570469799
2024-02-01T09:04:57.399Z,35.006711409395976
2024-02-01T09:10:44.790Z,51.38255033557047
2024-02-01T09:16:05.452Z,49.76510067114094
2024-02-01T09:19:26.694Z,53.422818791946305
2024-02-01T09:22:47.384Z,47.77181208053691
2024-02-01T09:26:10.272Z,45.5503355704698
2024-02-01T09:29:31.316Z,48.79865771812081
2024-02-01T09:32:51.451Z,47.281879194630875
2024-02-01T09:36:11.342Z,57.58389261744966
2024-02-01T09:39:33.634Z,44.18791946308725
2024-02-01T09:42:54.818Z,46.69798657718121
2024-02-01T09:46:15.562Z,58.033557046979865
2024-02-01T09:51:01.579Z,54.375838926174495
2024-02-01T09:54:22.173Z,45.74496644295302
2024-02-01T09:57:42.872Z,55.993288590604024
2024-02-01T10:01:03.485Z,48.47651006711409
2024-02-01T10:04:24.957Z,58.013422818791945
2024-02-01T10:07:44.827Z,52.651006711409394
2024-02-01T10:11:05.184Z,55.557046979865774
2024-02-01T10:14:26.059Z,53.5503355704698
2024-02-01T10:20:04.806Z,51.79865771812081
2024-02-01T10:23:25.782Z,46.95973154362416
2024-02-01T10:27:27.301Z,53.40268456375839
2024-02-01T10:30:49.887Z,54.261744966442954
2024-02-01T10:34:12.876Z,45.4496644295302
2024-02-01T10:37:36.063Z,49.241610738255034
2024-02-01T10:40:55.605Z,43.65771812080537
2024-02-01T10:44:16.724Z,40.48993288590604
2024-02-01T10:47:37.829Z,46.87248322147651
2024-02-01T10:50:58.157Z,45.899328859060404
2024-02-01T10:54:18.657Z,43.013422818791945
2024-02-01T10:57:38.281Z,44.48993288590604
2024-02-01T11:00:58.872Z,37.95973154362416
2024-02-01T11:04:19.333Z,35.77181208053691
2024-02-01T11:10:44.512Z,43.92617449664429
2024-02-01T11:14:04.667Z,48.060402684563755
2024-02-01T11:17:25.889Z,47.2751677852349
2024-02-01T11:20:45.953Z,45.81879194630873
2024-02-01T11:24:06.015Z,42.57046979865772
2024-02-01T11:27:26.372Z,37.7248322147651
2024-02-01T11:30:46.279Z,44.711409395973156
2024-02-01T11:34:06.383Z,63.56375838926174
2024-02-01T11:37:29.262Z,36.46979865771812
2024-02-01T11:40:50.719Z,52.08724832214765
2024-02-01T11:44:11.116Z,53.95302013422819
2024-02-01T11:48:29.766Z,41.34228187919463
2024-02-01T11:51:50.196Z,39.84563758389262
2024-02-01T11:55:09.926Z,37.013422818791945
2024-02-01T11:58:31.024Z,42.93288590604027
2024-02-01T12:01:51.022Z,49.04697986577181
2024-02-01T12:05:11.257Z,39.65771812080537
2024-02-01T12:08:34.326Z,36.77852348993289
2024-02-01T12:11:55.430Z,34.16107382550336
2024-02-01T12:15:15.628Z,42.348993288590606
2024-02-01T12:18:35.904Z,29.959731543624162
2024-02-01T12:21:56.578Z,36.214765100671144
2024-02-01T12:25:17.475Z,31.70469798657718
2024-02-01T12:29:38.572Z,35.59060402684564
2024-02-01T12:32:59.267Z,36.09395973154363
2024-02-01T12:36:20.221Z,33.48993288590604
2024-02-01T12:39:40.057Z,35.46308724832215
2024-02-01T12:43:00.588Z,36.946308724832214
2024-02-01T12:46:44.570Z,40.65771812080537
2024-02-01T12:50:04.824Z,51.95973154362416
2024-02-01T12:53:25.944Z,45.946308724832214
2024-02-01T12:56:46.232Z,38.73154362416108
2024-02-01T13:00:06.196Z,36.57046979865772
2024-02-01T13:06:09.652Z,39.785234899328856
2024-02-01T13:09:31.361Z,40.61744966442953
2024-02-01T13:12:51.770Z,50.691275167785236
2024-02-01T13:16:11.989Z,46.36241610738255
2024-02-01T13:22:45.147Z,54.053691275167786
2024-02-01T13:26:05.760Z,55.74496644295302
2024-02-01T13:29:27.025Z,39.946308724832214
2024-02-01T13:38:48.999Z,38.04697986577181
2024-02-01T13:42:10.030Z,49.09395973154363
2024-02-01T13:45:30.707Z,76.97986577181209
2024-02-01T13:48:51.490Z,56.738255033557046
2024-02-01T13:52:11.985Z,39.52348993288591
2024-02-01T13:57:39.432Z,37.89261744966443
2024-02-01T14:00:59.888Z,36.10738255033557
2024-02-01T14:04:21.063Z,43.48322147651007
2024-02-01T14:07:40.957Z,24.651006711409394
2024-02-01T14:11:01.316Z,37.04697986577181
2024-02-01T14:14:23.332Z,28.57718120805369
2024-02-01T14:17:43.925Z,32.966442953020135
2024-02-01T14:21:04.093Z,24.78523489932886
2024-02-01T14:24:26.118Z,17.046979865771814
2024-02-01T14:27:46.566Z,23.114093959731544
2024-02-01T14:31:06.432Z,24.85234899328859
2024-02-01T14:34:27.556Z,26.671140939597315
2024-02-01T14:37:48.504Z,19.966442953020135
2024-02-01T14:41:08.663Z,29.83221476510067
2024-02-01T14:44:29.323Z,35.19463087248322
2024-02-01T14:47:49.055Z,54.06711409395973
2024-02-01T14:51:08.890Z,43.33557046979866
2024-02-01T14:54:29.495Z,61.033557046979865
2024-02-01T14:57:49.580Z,48.52348993288591
2024-02-01T15:03:23.969Z,35.738255033557046
2024-02-01T15:06:44.521Z,45.15436241610738
2024-02-01T15:10:04.935Z,52.58389261744966
2024-02-01T15:13:26.038Z,45.241610738255034
2024-02-01T15:16:46.123Z,48.308724832214764
2024-02-01T15:21:34.194Z,46.16778523489933
2024-02-01T15:24:54.629Z,39.013422818791945
2024-02-01T15:32:01.990Z,42.52348993288591
2024-02-01T15:35:23.066Z,35.18791946308725
2024-02-01T15:41:23.957Z,48.74496644295302
2024-02-01T15:44:50.567Z,60.59731543624161
2024-02-01T15:48:27.574Z,41.89261744966443
2024-02-01T15:51:48.863Z,51.241610738255034
2024-02-01T15:55:08.808Z,49.671140939597315
2024-02-01T15:58:30.039Z,36.328859060402685
2024-02-01T16:01:50.496Z,31.879194630872483
2024-02-01T16:05:10.980Z,30.778523489932887
2024-02-01T16:08:31.668Z,36.25503355704698
2024-02-01T16:11:52.083Z,33.604026845637584
2024-02-01T16:16:31.617Z,35.04026845637584
2024-02-01T16:19:52.201Z,35.97986577181208
2024-02-01T16:23:12.733Z,35.966442953020135
2024-02-01T16:26:33.520Z,34.38255033557047
2024-02-01T16:29:54.163Z,29.543624161073826
2024-02-01T16:33:14.131Z,31.838926174496645
2024-02-01T16:36:34.441Z,35.20805369127517
2024-02-01T16:39:54.974Z,41.77181208053691
2024-02-01T16:43:15.390Z,25.033557046979865
2024-02-01T16:46:36.366Z,36.46979865771812
2024-02-01T16:51:20.790Z,36.26845637583892
2024-02-01T17:03:20.641Z,44.57046979865772
2024-02-01T17:15:30.810Z,60.718120805369125
2024-02-01T17:18:50.510Z,76.01342281879195
2024-02-01T17:22:11.005Z,52.785234899328856
2024-02-01T17:25:31.546Z,46.711409395973156
2024-02-01T17:28:51.632Z,44.73154362416108
2024-02-01T17:43:02.671Z,72.46979865771812
2024-02-01T17:46:24.064Z,59.26845637583892
2024-02-01T17:49:44.494Z,82.77852348993288
2024-02-01T17:58:40.540Z,83.49664429530202
2024-02-01T18:07:57.964Z,94.46979865771812
2024-02-01T18:11:19.003Z,79.22818791946308
2024-02-01T18:14:39.176Z,82.4496644295302
2024-02-01T18:17:59.632Z,70.83892617449665
2024-02-01T18:21:21.925Z,53.91275167785235
2024-02-01T18:24:42.865Z,61.38926174496644
2024-02-01T18:28:04.659Z,51.81879194630873
2024-02-01T18:31:26.154Z,77.44295302013423
2024-02-01T18:34:47.760Z,62.16107382550336
2024-02-01T18:40:43.895Z,54.26845637583892
2024-02-01T18:44:03.951Z,49.369127516778526
2024-02-01T18:49:27.710Z,48.06711409395973
2024-02-01T18:52:49.132Z,50.53020134228188
2024-02-01T18:56:09.625Z,39.422818791946305
2024-02-01T18:59:30.481Z,39.33557046979866
2024-02-01T19:02:50.785Z,39.53691275167785
2024-02-01T19:06:10.828Z,43.20134228187919
2024-02-01T19:09:31.521Z,41.241610738255034
2024-02-01T19:12:51.775Z,42.34228187919463
2024-02-01T19:16:11.728Z,51.966442953020135
2024-02-01T19:19:32.767Z,47.97315436241611
2024-02-01T19:22:53.202Z,47.49664429530201
2024-02-01T19:26:34.545Z,53.24832214765101
2024-02-01T19:29:54.875Z,52.34228187919463
2024-02-01T19:33:16.046Z,51.18791946308725
2024-02-01T19:36:36.930Z,59.87248322147651
2024-02-01T19:43:10.780Z,44.718120805369125
2024-02-01T19:46:31.621Z,65.15436241610739
2024-02-01T19:49:51.629Z,91.3489932885906
2024-02-01T19:53:11.685Z,115.2751677852349
2024-02-01T19:56:33.155Z,154.86577181208054
2024-02-01T19:59:53.364Z,138.6711409395973
2024-02-01T20:03:13.806Z,103.61744966442953
2024-02-01T20:06:34.604Z,53.711409395973156
2024-02-01T20:10:11.343Z,55.76510067114094
2024-02-01T20:16:44.410Z,50.97315436241611
2024-02-01T20:20:07.290Z,52.67785234899329
2024-02-01T20:23:30.766Z,52.33557046979866
2024-02-01T20:26:51.701Z,47.77852348993289
2024-02-01T20:30:12.417Z,60.25503355704698
2024-02-01T20:33:32.654Z,56.74496644295302
2024-02-01T20:36:53.300Z,51.060402684563755
2024-02-01T20:40:13.958Z,52.90604026845637
2024-02-01T20:43:34.474Z,51.59060402684564
2024-02-01T20:46:54.401Z,57.88590604026846
2024-02-01T20:50:14.356Z,44.51006711409396
2024-02-01T20:53:34.632Z,46.43624161073826
2024-02-01T20:56:54.716Z,47.45637583892618
2024-02-01T21:00:15.500Z,54.90604026845637
2024-02-01T21:03:36.378Z,45.57046979865772
2024-02-01T21:06:57.298Z,49.66442953020134
2024-02-01T21:10:18.622Z,40.557046979865774
2024-02-01T21:15:06.103Z,54.18791946308725
2024-02-01T21:18:26.872Z,43.53020134228188
2024-02-01T21:21:48.003Z,45.986577181208055
2024-02-01T21:25:07.904Z,48.58389261744966
2024-02-01T21:28:28.746Z,50.40268456375839
2024-02-01T21:32:10.906Z,58.013422818791945
2024-02-01T21:35:33.097Z,44.18791946308725
2024-02-01T21:38:54.033Z,46.919463087248324
2024-02-01T21:42:14.285Z,40.1744966442953
2024-02-01T21:45:35.714Z,46.59731543624161
2024-02-01T21:48:56.103Z,40.577181208053695
2024-02-01T21:52:17.448Z,36.51006711409396
2024-02-01T21:55:38.597Z,46.22147651006711
2024-02-01T21:58:58.821Z,47.16778523489933
2024-02-01T22:02:19.530Z,42.61744966442953
2024-02-01T22:05:40.249Z,38.77852348993289
2024-02-01T22:09:01.025Z,44.25503355704698
2024-02-01T22:12:22.341Z,53.41610738255034
2024-02-01T22:15:43.157Z,40.87248322147651
2024-02-01T22:19:03.454Z,49.899328859060404
2024-02-01T22:22:23.170Z,42.12080536912752
2024-02-01T22:25:43.521Z,39.50335570469799
2024-02-01T22:29:03.068Z,44.18791946308725
2024-02-01T22:32:24.094Z,43.26845637583892
2024-02-01T22:38:38.160Z,45.4496644295302
2024-02-01T22:41:58.439Z,40.624161073825505
2024-02-01T22:45:19.129Z,36.986577181208055
2024-02-01T22:48:40.022Z,37.75167785234899
2024-02-01T22:53:31.544Z,44.74496644295302
2024-02-01T22:56:51.503Z,40.31543624161074
2024-02-01T23:00:11.760Z,34.12751677852349
2024-02-01T23:03:32.805Z,42.1744966442953
2024-02-01T23:06:52.762Z,38.281879194630875
2024-02-01T23:10:12.787Z,31.456375838926174
2024-02-01T23:13:33.347Z,38.69798657718121
2024-02-01T23:16:52.918Z,33.04697986577181
2024-02-01T23:23:11.871Z,31.416107382550337
2024-02-01T23:26:49.477Z,30.93288590604027
2024-02-01T23:30:09.447Z,35.624161073825505
2024-02-01T23:33:30.494Z,28.86577181208054
2024-02-01T23:36:50.600Z,36.75167785234899
2024-02-01T23:40:10.550Z,30.436241610738254
2024-02-01T23:43:30.914Z,33.81208053691275
2024-02-01T23:46:50.954Z,31.20805369127517
2024-02-01T23:50:11.049Z,32.87919463087248
2024-02-01T23:53:32.122Z,35.630872483221474
2024-02-01T23:56:52.154Z,40.308724832214764
